Time;durP1;ratioP1;P1;durP2;ratioP2;P2;SDS_P1;SDS_P2;PMS_P1;PMS_P2;Temp;Humidity;BMP_temperature;BMP_pressure;BME280_temperature;BME280_humidity;BME280_pressure;Samples;Min_cycle;Max_cycle;Signal;HPM_P1;HPM_P2
2022/06/25 00:02:07;;;;;;;27.33;24.53;;;;;;;18.20;96.38;100914.56;4995787;28;20437;-47
2022/06/25 00:07:21;;;;;;;31.03;27.90;;;;;;;18.12;96.35;100905.00;4994961;28;21012;-44
2022/06/25 00:09:49;;;;;;;34.80;31.30;;;;;;;18.10;96.41;100895.47;4995556;28;20433;-48
2022/06/25 00:12:35;;;;;;;38.27;34.17;;;;;;;18.05;96.35;100890.81;4995384;28;20433;-48
2022/06/25 00:15:05;;;;;;;41.60;32.77;;;;;;;18.03;96.17;100892.13;4995274;28;20476;-45
2022/06/25 00:17:33;;;;;;;30.80;27.80;;;;;;;17.99;96.20;100897.19;4994910;28;20472;-46
2022/06/25 00:20:03;;;;;;;26.10;23.60;;;;;;;17.95;96.15;100901.41;4995087;28;20433;-44
2022/06/25 00:22:32;;;;;;;28.20;25.17;;;;;;;17.91;96.45;100902.16;4994936;28;20444;-46
2022/06/25 00:25:00;;;;;;;33.17;29.93;;;;;;;17.86;96.43;100902.84;4995129;28;20946;-47
2022/06/25 00:27:28;;;;;;;32.60;29.33;;;;;;;17.83;96.38;100903.34;4994435;28;20548;-44
2022/06/25 00:29:56;;;;;;;34.27;30.97;;;;;;;17.78;96.61;100902.41;4995234;28;20836;-45
2022/06/25 00:32:24;;;;;;;33.03;29.60;;;;;;;17.74;96.37;100902.06;4988989;28;20445;-48
2022/06/25 00:34:51;;;;;;;30.50;27.40;;;;;;;17.68;96.47;100898.47;4986767;28;20820;-45
2022/06/25 00:37:19;;;;;;;24.77;22.50;;;;;;;17.67;96.33;100898.72;4994477;28;20480;-51
2022/06/25 00:39:48;;;;;;;27.43;25.03;;;;;;;17.64;96.51;100889.22;4995031;28;20442;-46
2022/06/25 00:42:15;;;;;;;29.50;26.63;;;;;;;17.61;96.30;100891.56;4994872;28;20440;-51
2022/06/25 00:44:44;;;;;;;28.23;25.30;;;;;;;17.59;96.14;100888.31;4994791;28;20446;-46
2022/06/25 00:47:13;;;;;;;27.33;24.63;;;;;;;17.57;96.08;100888.53;4993624;28;20473;-49
2022/06/25 00:49:41;;;;;;;31.63;28.30;;;;;;;17.56;96.02;100884.19;4994755;28;20434;-49
2022/06/25 00:52:11;;;;;;;41.87;37.47;;;;;;;17.55;95.75;100895.22;4994400;28;20437;-50
2022/06/25 00:54:43;;;;;;;39.63;35.63;;;;;;;17.55;95.63;100903.31;4994531;28;20477;-49
2022/06/25 00:57:17;;;;;;;38.50;34.40;;;;;;;17.53;95.59;100900.03;4994219;28;20476;-48
2022/06/25 00:59:49;;;;;;;37.33;33.07;;;;;;;17.48;95.88;100899.88;4994554;28;20444;-48
2022/06/25 01:02:18;;;;;;;29.53;26.80;;;;;;;17.44;96.02;100899.53;4994572;28;20981;-45
2022/06/25 01:04:46;;;;;;;31.03;27.93;;;;;;;17.42;95.78;100890.06;4994387;28;21001;-46
2022/06/25 01:07:13;;;;;;;43.10;35.30;;;;;;;17.39;95.90;100891.34;4994074;28;20488;-45
2022/06/25 01:09:41;;;;;;;40.80;36.80;;;;;;;17.36;95.96;100896.41;4994509;28;20445;-45
2022/06/25 01:12:09;;;;;;;41.27;36.87;;;;;;;17.33;95.71;100899.56;4994071;28;21293;-47
2022/06/25 01:14:38;;;;;;;36.57;32.97;;;;;;;17.31;95.79;100907.06;4994080;28;20990;-50
2022/06/25 01:17:07;;;;;;;34.20;30.73;;;;;;;17.31;95.40;100915.16;5025033;23;20986;-43
2022/06/25 01:19:35;;;;;;;45.50;36.40;;;;;;;17.28;95.48;100919.16;5008679;28;20432;-44
2022/06/25 01:22:05;;;;;;;32.87;29.73;;;;;;;17.25;95.79;100919.63;5013766;28;20440;-42
2022/06/25 01:24:33;;;;;;;38.37;30.77;;;;;;;17.21;95.75;100915.75;5014100;28;20440;-42
2022/06/25 01:27:01;;;;;;;38.07;34.10;;;;;;;17.17;95.65;100927.25;5013360;28;20479;-43
2022/06/25 01:29:29;;;;;;;37.20;33.30;;;;;;;17.11;96.03;100935.19;5013663;28;20432;-42
2022/06/25 01:31:56;;;;;;;40.63;36.60;;;;;;;17.09;95.85;100937.31;5007169;28;21128;-45
2022/06/25 01:34:24;;;;;;;36.60;33.30;;;;;;;17.08;95.61;100942.97;5005556;28;20983;-43
2022/06/25 01:36:52;;;;;;;32.70;29.13;;;;;;;17.06;95.45;100945.03;5013179;28;20479;-44
2022/06/25 01:39:21;;;;;;;37.47;33.60;;;;;;;17.02;95.61;100950.06;5013679;28;20436;-42
2022/06/25 01:41:48;;;;;;;45.80;36.97;;;;;;;17.02;95.28;100951.97;5013482;28;20443;-43
2022/06/25 01:44:16;;;;;;;36.93;31.27;;;;;;;17.00;95.35;100956.75;5013427;28;20432;-43
2022/06/25 01:46:44;;;;;;;40.00;34.77;;;;;;;16.97;95.31;100962.59;5012724;28;20464;-43
2022/06/25 01:49:11;;;;;;;55.90;38.70;;;;;;;16.94;95.13;100963.91;5013473;28;20725;-45
2022/06/25 01:51:39;;;;;;;39.60;34.93;;;;;;;16.92;95.20;100966.03;5013192;28;20437;-46
2022/06/25 01:54:07;;;;;;;36.70;33.00;;;;;;;16.90;95.19;100959.22;5013444;28;20433;-45
2022/06/25 01:56:36;;;;;;;31.90;28.77;;;;;;;16.85;95.19;100945.63;5012702;28;20465;-45
2022/06/25 01:59:03;;;;;;;36.03;32.63;;;;;;;16.83;94.96;100956.63;5012093;28;20433;-43
2022/06/25 02:01:31;;;;;;;31.40;28.37;;;;;;;16.79;95.20;100965.41;5013105;28;20444;-43
2022/06/25 02:03:58;;;;;;;31.43;28.67;;;;;;;16.77;94.97;100965.63;5013102;28;20805;-43
2022/06/25 02:06:26;;;;;;;31.57;28.63;;;;;;;16.77;94.74;100964.81;5012637;28;20830;-42
2022/06/25 02:08:59;;;;;;;39.30;32.40;;;;;;;16.75;95.18;100966.94;5013167;28;20432;-42
2022/06/25 02:11:27;;;;;;;41.10;35.80;;;;;;;16.70;95.33;100977.56;5012640;28;20536;-44
2022/06/25 02:13:56;;;;;;;35.70;28.90;;;;;;;16.68;95.23;100980.50;5012833;28;20795;-44
2022/06/25 02:16:23;;;;;;;76.33;39.40;;;;;;;16.65;95.36;100988.22;5012404;28;20467;-46
2022/06/25 02:18:51;;;;;;;47.87;34.50;;;;;;;16.63;94.89;100988.44;5012641;28;20437;-45
2022/06/25 02:21:19;;;;;;;54.67;36.70;;;;;;;16.64;94.45;100984.69;5012537;28;20448;-43
2022/06/25 02:23:46;;;;;;;78.57;37.27;;;;;;;16.64;94.14;100982.00;4995078;28;20460;-44
2022/06/25 02:26:14;;;;;;;113.83;40.97;;;;;;;16.65;93.86;100991.72;4990915;28;20986;-42
2022/06/25 02:28:41;;;;;;;138.97;50.10;;;;;;;16.65;93.62;100985.50;5005936;28;20802;-42
2022/06/25 02:31:10;;;;;;;35.10;31.33;;;;;;;16.65;93.55;100991.72;5011861;28;20784;-43
2022/06/25 02:33:38;;;;;;;49.13;32.57;;;;;;;16.66;93.11;100990.69;5012337;28;20487;-43
2022/06/25 02:36:06;;;;;;;61.33;36.90;;;;;;;16.66;93.13;100998.75;5011757;28;20484;-45
2022/06/25 02:38:33;;;;;;;74.40;32.63;;;;;;;16.66;93.39;101003.31;5012146;28;20444;-43
2022/06/25 02:41:01;;;;;;;59.27;32.33;;;;;;;16.67;93.04;101005.75;5011821;28;20444;-42
2022/06/25 02:43:29;;;;;;;59.53;34.67;;;;;;;16.64;93.67;101000.84;5012302;28;20809;-42
2022/06/25 02:45:56;;;;;;;31.90;28.43;;;;;;;16.64;93.57;101002.72;5012188;28;20456;-43
2022/06/25 02:48:25;;;;;;;29.90;27.10;;;;;;;16.63;93.51;101004.59;5011971;28;20448;-44
2022/06/25 02:50:53;;;;;;;36.33;32.70;;;;;;;16.63;93.58;101011.84;5011450;28;20444;-42
2022/06/25 02:53:21;;;;;;;32.37;29.47;;;;;;;16.62;93.44;101008.34;5011928;28;20476;-42
2022/06/25 02:58:58;;;;;;;33.13;30.20;;;;;;;16.57;94.14;101016.28;4976742;28;20453;-42
2022/06/25 03:01:27;;;;;;;31.10;27.93;;;;;;;16.61;93.18;101022.84;5011341;28;20436;-44
2022/06/25 03:03:57;;;;;;;30.47;27.40;;;;;;;16.65;93.05;101024.03;5012150;28;20470;-42
2022/06/25 03:06:25;;;;;;;32.60;29.33;;;;;;;16.68;92.74;101020.06;5011345;28;20453;-44
2022/06/25 03:08:53;;;;;;;40.60;36.53;;;;;;;16.75;92.23;101020.78;5012168;28;20433;-42
2022/06/25 03:11:21;;;;;;;33.43;30.13;;;;;;;16.78;92.45;101025.72;5010962;28;20437;-42
2022/06/25 03:13:48;;;;;;;36.47;32.80;;;;;;;16.83;92.29;101015.91;5011919;28;20440;-43
2022/06/25 03:16:16;;;;;;;37.10;32.73;;;;;;;16.90;92.14;101018.50;5011027;28;20587;-43
2022/06/25 03:18:44;;;;;;;35.03;31.70;;;;;;;16.98;92.10;101024.34;5012030;28;20437;-45
2022/06/25 03:21:13;;;;;;;33.97;30.87;;;;;;;17.05;92.60;101019.66;5011323;28;20456;-47
2022/06/25 03:23:40;;;;;;;40.83;27.70;;;;;;;17.20;91.87;101015.72;5011932;28;20433;-44
2022/06/25 03:26:08;;;;;;;28.93;26.03;;;;;;;17.39;91.34;101003.75;5011324;28;20449;-44
2022/06/25 03:28:36;;;;;;;31.70;28.90;;;;;;;17.88;86.12;101003.28;5011784;28;20439;-44
2022/06/25 03:31:04;;;;;;;30.70;28.00;;;;;;;18.60;82.42;101017.13;5011385;28;20447;-45
2022/06/25 03:33:31;;;;;;;26.17;23.60;;;;;;;19.39;81.84;101004.38;4994730;28;20430;-43
2022/06/25 03:36:00;;;;;;;27.63;25.43;;;;;;;19.56;96.43;101016.03;5009462;28;20499;-42
2022/06/25 03:38:29;;;;;;;28.77;26.00;;;;;;;19.50;100.00;101006.22;5011933;28;20441;-43
2022/06/25 03:43:38;;;;;;;21.73;19.80;;;;;;;19.41;100.00;101013.09;5010981;28;20428;-43
2022/06/25 03:46:06;;;;;;;22.30;20.57;;;;;;;19.32;100.00;101026.19;5011301;28;20457;-43
2022/06/25 03:48:34;;;;;;;21.90;19.83;;;;;;;19.29;100.00;101030.19;5011974;28;20452;-42
2022/06/25 03:51:02;;;;;;;29.27;26.60;;;;;;;19.26;100.00;101021.78;5011544;28;20435;-43
2022/06/25 03:53:31;;;;;;;26.70;24.40;;;;;;;19.23;100.00;101024.97;5011595;28;20490;-42
2022/06/25 03:56:00;;;;;;;21.13;19.30;;;;;;;19.21;100.00;101019.78;5011324;28;20484;-42
2022/06/25 03:58:27;;;;;;;20.20;18.40;;;;;;;19.15;100.00;101030.78;5011726;28;20437;-43
2022/06/25 04:00:55;;;;;;;24.00;22.00;;;;;;;19.11;100.00;101024.25;5011645;28;20798;-42
2022/06/25 04:03:23;;;;;;;24.53;22.43;;;;;;;19.04;100.00;101027.09;5011808;28;20445;-43
2022/06/25 04:05:50;;;;;;;22.57;20.77;;;;;;;19.00;100.00;101025.94;5011515;28;20424;-42
2022/06/25 04:08:18;;;;;;;24.73;22.10;;;;;;;18.97;100.00;101025.59;5011158;28;20474;-42
2022/06/25 04:10:47;;;;;;;28.90;26.37;;;;;;;18.88;100.00;101030.59;5011759;28;20433;-42
2022/06/25 04:13:15;;;;;;;27.73;25.20;;;;;;;18.78;100.00;101033.97;5011756;28;20436;-42
2022/06/25 04:15:42;;;;;;;29.30;26.60;;;;;;;18.69;99.92;101030.00;5011516;28;20425;-43
2022/06/25 04:18:10;;;;;;;31.57;28.37;;;;;;;18.65;100.00;101033.44;5011017;28;20464;-43
2022/06/25 04:20:38;;;;;;;29.07;26.30;;;;;;;18.56;99.92;101024.06;5011187;28;20433;-43
2022/06/25 04:23:06;;;;;;;24.83;22.53;;;;;;;18.49;100.00;101021.50;5014138;28;20443;-43
2022/06/25 04:25:34;;;;;;;27.87;25.27;;;;;;;18.44;100.00;101026.81;5015172;28;20432;-42
2022/06/25 04:30:48;;;;;;;24.50;22.27;;;;;;;18.48;100.00;101029.84;5014790;28;20519;-42
2022/06/25 04:33:17;;;;;;;27.37;24.87;;;;;;;18.53;100.00;101033.47;5004833;28;20433;-45
2022/06/25 04:35:45;;;;;;;28.43;25.23;;;;;;;18.61;100.00;101029.56;5010976;28;20417;-43
2022/06/25 04:38:13;;;;;;;24.50;22.30;;;;;;;18.75;100.00;101029.03;5014264;28;20464;-44
2022/06/25 04:40:40;;;;;;;25.70;23.50;;;;;;;18.83;100.00;101022.41;5014577;28;20435;-44
2022/06/25 04:43:09;;;;;;;28.37;25.97;;;;;;;19.10;100.00;101023.41;5014673;28;20437;-43
2022/06/25 04:45:37;;;;;;;28.27;25.67;;;;;;;19.52;100.00;101029.22;5014498;28;20440;-42
2022/06/25 04:48:05;;;;;;;24.53;22.43;;;;;;;20.08;99.80;101019.16;5014295;28;20479;-43
2022/06/25 04:50:36;;;;;;;24.80;22.70;;;;;;;21.27;98.76;101017.13;5014597;28;20512;-45
2022/06/25 04:53:04;;;;;;;24.20;22.00;;;;;;;22.48;100.00;101015.84;5014661;28;21056;-44
2022/06/25 04:55:31;;;;;;;24.60;22.57;;;;;;;23.38;92.26;101018.91;5014634;28;20834;-42
2022/06/25 04:57:59;;;;;;;20.60;19.00;;;;;;;24.22;88.09;101013.53;5014112;28;20464;-44
2022/06/25 05:00:28;;;;;;;15.07;14.07;;;;;;;25.13;84.26;101021.09;5014261;28;20428;-42
2022/06/25 05:02:56;;;;;;;20.40;18.83;;;;;;;25.97;80.22;101011.50;5014701;28;20508;-43
2022/06/25 05:05:23;;;;;;;20.80;19.00;;;;;;;26.48;73.16;101019.88;5014553;28;20433;-43
2022/06/25 05:07:51;;;;;;;20.60;18.70;;;;;;;27.05;70.72;101024.22;5013828;28;21000;-43
2022/06/25 05:10:19;;;;;;;20.83;18.83;;;;;;;27.67;68.66;101031.06;5014105;28;20956;-44
2022/06/25 05:15:33;;;;;;;17.80;16.70;;;;;;;29.16;64.08;101029.16;5014269;28;20439;-45
2022/06/25 05:18:01;;;;;;;18.33;17.03;;;;;;;29.18;59.91;101035.94;5013666;28;20546;-45
2022/06/25 05:20:28;;;;;;;16.00;14.97;;;;;;;29.05;57.77;101036.84;5013996;28;20436;-43
2022/06/25 05:22:56;;;;;;;14.80;13.70;;;;;;;28.50;57.38;101030.72;5014034;28;20446;-43
2022/06/25 05:25:24;;;;;;;16.03;14.97;;;;;;;29.37;58.90;101047.59;5013959;28;20428;-43
2022/06/25 05:27:51;;;;;;;16.00;14.80;;;;;;;30.14;57.01;101034.19;5013609;28;20464;-43
2022/06/25 05:30:19;;;;;;;17.37;16.07;;;;;;;30.67;53.51;101033.94;5013638;28;20456;-43
2022/06/25 05:32:48;;;;;;;15.80;14.80;;;;;;;31.07;54.12;101044.81;5007680;28;20260;-46
2022/06/25 05:35:15;;;;;;;15.03;14.07;;;;;;;31.28;51.22;101048.50;4997980;28;20194;-44
2022/06/25 05:37:43;;;;;;;15.00;14.00;;;;;;;31.10;52.43;101049.66;5013086;28;20226;-45
2022/06/25 05:40:12;;;;;;;16.77;15.50;;;;;;;30.46;52.45;101048.69;5013692;28;20707;-43
2022/06/25 05:42:40;;;;;;;13.33;12.53;;;;;;;30.23;51.56;101047.94;5013602;28;20194;-43
2022/06/25 05:45:09;;;;;;;14.30;13.17;;;;;;;29.58;52.21;101056.09;5013706;28;20197;-47
2022/06/25 05:47:36;;;;;;;14.90;13.80;;;;;;;29.46;52.87;101055.88;5012710;28;20230;-44
2022/06/25 05:50:07;;;;;;;14.67;12.80;;;;;;;28.68;52.13;101057.22;5013410;28;20201;-45
2022/06/25 05:52:35;;;;;;;14.03;13.13;;;;;;;28.60;54.44;101068.91;5013204;28;20201;-44
2022/06/25 05:55:03;;;;;;;12.80;11.90;;;;;;;29.61;53.83;101081.03;5013468;28;20443;-43
2022/06/25 05:57:30;;;;;;;14.90;13.90;;;;;;;30.49;52.48;101078.31;5012623;28;20487;-45
2022/06/25 05:59:59;;;;;;;14.70;13.67;;;;;;;31.35;51.04;101081.88;5013101;28;20241;-43
2022/06/25 06:02:27;;;;;;;14.00;13.00;;;;;;;32.03;48.94;101086.41;5013033;28;20278;-44
2022/06/25 06:04:55;;;;;;;11.03;10.27;;;;;;;32.64;48.83;101075.84;5013124;28;20202;-43
2022/06/25 06:07:24;;;;;;;11.70;10.90;;;;;;;33.07;46.64;101081.81;5012584;28;20264;-44
2022/06/25 06:09:51;;;;;;;8.68;8.07;;;;;;;33.75;47.18;101085.84;5013335;28;20209;-45
2022/06/25 06:12:19;;;;;;;13.23;12.38;;;;;;;34.05;43.97;101083.66;5013054;28;20202;-44
2022/06/25 06:14:46;;;;;;;10.38;9.77;;;;;;;34.37;42.95;101098.56;5012995;28;20197;-43
2022/06/25 06:17:14;;;;;;;9.65;8.93;;;;;;;34.57;41.47;101103.16;5012362;28;20236;-45
2022/06/25 06:19:42;;;;;;;10.00;9.38;;;;;;;34.62;41.36;101102.94;5006955;28;20190;-44
2022/06/25 06:22:09;;;;;;;14.90;9.25;;;;;;;34.87;41.04;101109.22;5004484;28;20206;-45
2022/06/25 06:24:46;;;;;;;7.85;7.25;;;;;;;34.64;40.58;101111.72;5012880;28;20197;-43
2022/06/25 06:27:13;;;;;;;7.82;7.43;;;;;;;35.10;41.04;101115.88;5012336;28;20236;-43
2022/06/25 06:29:41;;;;;;;9.88;9.23;;;;;;;35.14;40.40;101118.75;5012805;28;20208;-44
2022/06/25 06:32:09;;;;;;;11.60;10.63;;;;;;;35.34;39.19;101120.50;5006178;28;21495;-43
2022/06/25 06:34:37;;;;;;;7.30;6.90;;;;;;;35.69;39.46;101118.72;5004669;28;20190;-45
2022/06/25 06:37:05;;;;;;;8.50;8.00;;;;;;;35.34;34.27;101113.00;5012042;28;20225;-44
2022/06/25 06:39:33;;;;;;;7.95;7.30;;;;;;;34.90;35.52;101119.59;5012596;28;20669;-43
2022/06/25 06:42:02;;;;;;;7.95;7.32;;;;;;;34.94;36.11;101115.00;5012283;28;20205;-43
2022/06/25 06:44:29;;;;;;;8.38;7.97;;;;;;;34.07;37.24;101117.34;5011803;28;20255;-42
2022/06/25 06:46:57;;;;;;;8.98;8.48;;;;;;;33.80;36.84;101116.06;5012191;28;20229;-46
2022/06/25 06:49:24;;;;;;;7.85;7.45;;;;;;;33.90;38.17;101114.81;5012564;28;20197;-43
2022/06/25 06:51:52;;;;;;;6.75;6.45;;;;;;;33.99;36.91;101123.78;5012323;28;20200;-43
2022/06/25 06:54:20;;;;;;;7.30;6.80;;;;;;;34.03;37.38;101127.50;5012763;28;20202;-43
2022/06/25 06:56:47;;;;;;;5.97;5.68;;;;;;;34.36;38.68;101130.19;5011781;28;20236;-43
2022/06/25 06:59:16;;;;;;;5.72;5.43;;;;;;;34.42;37.00;101135.16;5012381;28;20244;-43
2022/06/25 07:01:44;;;;;;;7.47;7.00;;;;;;;34.52;38.22;101133.88;5003042;28;20293;-42
2022/06/25 07:04:12;;;;;;;8.25;7.53;;;;;;;34.81;37.01;101132.78;4991066;28;20205;-43
2022/06/25 07:06:39;;;;;;;7.50;6.97;;;;;;;34.81;35.68;101141.91;4990778;28;20348;-43
2022/06/25 07:09:07;;;;;;;7.60;6.90;;;;;;;34.68;37.36;101151.41;4991905;28;20559;-47
2022/06/25 07:11:36;;;;;;;4.10;3.90;;;;;;;35.06;36.47;101144.63;4991179;28;20208;-44
2022/06/25 07:14:05;;;;;;;4.30;4.10;;;;;;;35.45;36.11;101150.13;4991981;28;20545;-47
2022/06/25 07:16:35;;;;;;;4.47;4.28;;;;;;;35.72;35.51;101150.50;4991479;28;20595;-47
2022/06/25 07:19:04;;;;;;;5.60;5.18;;;;;;;35.82;33.94;101153.53;4991654;28;20222;-46
2022/06/25 07:21:32;;;;;;;5.00;4.75;;;;;;;35.41;35.40;101157.56;4991377;28;20299;-43
2022/06/25 07:24:00;;;;;;;5.00;4.80;;;;;;;35.07;35.46;101162.84;4991601;28;20878;-43
2022/06/25 07:26:28;;;;;;;6.22;5.80;;;;;;;34.99;33.55;101161.84;4990911;28;20581;-44
2022/06/25 07:28:56;;;;;;;5.95;5.60;;;;;;;34.34;35.97;101165.72;4991755;28;20198;-44
2022/06/25 07:31:24;;;;;;;5.93;5.63;;;;;;;34.34;35.88;101166.53;4991990;28;20193;-45
2022/06/25 07:33:53;;;;;;;5.38;5.00;;;;;;;34.25;35.78;101159.50;4998811;28;20199;-45
2022/06/25 07:36:20;;;;;;;7.40;6.80;;;;;;;33.57;35.63;101163.81;5009676;28;20233;-47
2022/06/25 07:38:48;;;;;;;7.38;6.88;;;;;;;33.27;36.78;101160.34;5000865;28;20248;-43
2022/06/25 07:41:16;;;;;;;7.65;7.13;;;;;;;32.91;38.42;101163.69;4989925;28;20210;-47
2022/06/25 07:43:43;;;;;;;8.30;7.70;;;;;;;32.94;39.34;101160.28;5002762;28;20209;-44
2022/06/25 07:46:11;;;;;;;8.32;7.72;;;;;;;32.77;38.88;101163.13;5009346;28;20591;-46
2022/06/25 07:48:39;;;;;;;8.93;8.35;;;;;;;32.55;39.64;101168.94;5010200;28;20237;-44
2022/06/25 07:53:53;;;;;;;9.25;8.65;;;;;;;31.80;41.20;101159.50;5010288;28;20193;-45
2022/06/25 07:56:22;;;;;;;8.75;8.15;;;;;;;31.40;42.66;101169.91;5008540;28;20236;-44
2022/06/25 07:58:49;;;;;;;9.15;8.65;;;;;;;31.27;42.90;101179.94;5004685;28;20599;-44
2022/06/25 08:01:17;;;;;;;9.68;8.65;;;;;;;31.04;43.19;101169.41;4994507;28;20194;-45
2022/06/25 08:03:45;;;;;;;8.70;8.20;;;;;;;31.11;43.07;101170.56;4994873;28;20209;-43
2022/06/25 08:06:15;;;;;;;8.18;7.57;;;;;;;30.81;42.83;101176.97;4994799;28;20225;-43
2022/06/25 08:08:43;;;;;;;8.73;8.27;;;;;;;30.66;43.91;101178.25;4994938;28;20210;-43
2022/06/25 08:11:10;;;;;;;8.77;8.37;;;;;;;29.70;46.33;101181.94;4995129;28;20575;-47
2022/06/25 08:13:38;;;;;;;7.90;7.50;;;;;;;29.48;46.51;101188.28;4995483;28;20194;-43
2022/06/25 08:16:09;;;;;;;7.67;7.23;;;;;;;28.80;48.75;101172.78;4994858;28;20234;-43
2022/06/25 08:18:38;;;;;;;5.50;5.30;;;;;;;28.80;46.54;101178.25;4995647;28;20218;-44
2022/06/25 08:21:07;;;;;;;4.90;4.70;;;;;;;28.56;46.63;101174.91;4995262;28;20664;-43
2022/06/25 08:23:35;;;;;;;4.90;4.60;;;;;;;28.14;46.40;101177.94;4995333;28;20198;-44
2022/06/25 08:26:03;;;;;;;3.63;3.50;;;;;;;27.58;47.82;101178.09;4992420;28;20584;-43
2022/06/25 08:28:31;;;;;;;4.30;4.20;;;;;;;26.77;50.50;101177.31;4995036;28;20425;-43
2022/06/25 08:30:59;;;;;;;3.87;3.60;;;;;;;27.22;49.16;101177.78;4994674;28;20433;-44
2022/06/25 08:33:26;;;;;;;4.30;4.10;;;;;;;27.29;49.54;101172.78;5003050;28;20430;-43
2022/06/25 08:35:54;;;;;;;4.10;3.90;;;;;;;27.13;49.26;101179.56;5011317;28;20439;-44
2022/06/25 08:38:22;;;;;;;4.20;4.00;;;;;;;27.29;49.52;101170.84;5014286;28;20977;-44
2022/06/25 08:40:56;;;;;;;4.30;4.10;;;;;;;27.01;48.68;101185.50;5013915;28;20432;-45
2022/06/25 08:43:25;;;;;;;4.23;3.40;;;;;;;27.06;47.98;101190.09;5014456;28;20432;-44
2022/06/25 08:45:53;;;;;;;4.10;3.90;;;;;;;26.90;48.35;101186.75;5037926;23;20477;-48
2022/06/25 08:48:22;;;;;;;3.70;3.50;;;;;;;26.82;48.06;101177.25;5025515;28;20513;-51
2022/06/25 08:50:51;;;;;;;3.80;3.60;;;;;;;26.81;49.36;101183.03;5034038;28;20774;-45
2022/06/25 08:53:19;;;;;;;3.37;3.27;;;;;;;27.06;49.13;101184.63;5033745;28;20444;-49
2022/06/25 08:55:47;;;;;;;4.70;4.20;;;;;;;27.32;47.66;101191.34;5033493;28;20451;-50
2022/06/25 08:58:16;;;;;;;3.57;3.47;;;;;;;27.55;46.93;101179.50;5033552;28;20468;-49
2022/06/25 09:00:46;;;;;;;3.63;3.40;;;;;;;27.53;47.17;101186.41;5033601;28;20440;-50
2022/06/25 09:03:13;;;;;;;3.80;3.63;;;;;;;27.51;47.00;101183.16;5033145;28;20439;-47
2022/06/25 09:05:42;;;;;;;3.90;3.80;;;;;;;27.45;47.72;101185.13;5033595;28;21021;-46
2022/06/25 09:08:13;;;;;;;4.00;3.80;;;;;;;26.99;50.54;101193.19;5032182;28;20465;-51
2022/06/25 09:10:42;;;;;;;3.90;3.13;;;;;;;26.73;48.00;101194.63;5032773;28;20428;-52
2022/06/25 09:13:11;;;;;;;3.93;3.50;;;;;;;26.36;49.70;101190.66;5033849;28;20432;-50
2022/06/25 09:15:41;;;;;;;3.87;3.67;;;;;;;26.47;49.88;101188.63;5033731;28;20431;-53
2022/06/25 09:18:11;;;;;;;4.03;3.83;;;;;;;26.62;50.31;101191.16;5033256;28;20482;-53
2022/06/25 09:21:00;;;;;;;3.90;3.80;;;;;;;26.13;53.28;101196.09;5033317;28;20438;-51
2022/06/25 09:23:29;;;;;;;4.57;4.20;;;;;;;25.92;53.67;101197.38;5033800;28;20439;-45
2022/06/25 09:26:05;;;;;;;4.70;4.50;;;;;;;25.74;53.90;101201.63;5033079;28;20450;-45
2022/06/25 09:28:35;;;;;;;5.43;5.03;;;;;;;25.84;53.00;101202.34;5033549;28;20432;-48
2022/06/25 09:31:04;;;;;;;4.93;4.63;;;;;;;25.91;53.89;101206.69;5033120;28;20454;-46
2022/06/25 09:33:34;;;;;;;5.90;5.50;;;;;;;26.08;53.39;101202.41;5015674;28;20468;-46
2022/06/25 09:36:02;;;;;;;5.10;4.90;;;;;;;26.03;54.26;101198.91;5030759;28;20474;-45
2022/06/25 09:38:29;;;;;;;5.00;4.50;;;;;;;26.08;53.97;101202.41;5032992;28;20836;-49
2022/06/25 09:40:59;;;;;;;5.47;5.27;;;;;;;26.18;53.30;101196.88;5033323;28;20435;-48
2022/06/25 09:43:28;;;;;;;5.30;5.10;;;;;;;26.13;53.90;101201.56;5033189;28;20428;-47
2022/06/25 09:45:57;;;;;;;5.23;4.93;;;;;;;26.62;52.52;101187.63;5032829;28;20456;-46
2022/06/25 09:48:28;;;;;;;6.77;6.30;;;;;;;27.01;53.11;101184.69;5032976;28;20786;-48
2022/06/25 09:51:07;;;;;;;5.07;4.77;;;;;;;27.37;52.23;101194.00;5032911;28;20439;-45
2022/06/25 09:53:36;;;;;;;5.77;5.37;;;;;;;27.65;50.71;101184.00;5032871;28;20813;-46
2022/06/25 09:56:04;;;;;;;5.37;4.97;;;;;;;27.72;51.62;101198.13;5032134;28;20565;-47
2022/06/25 09:58:32;;;;;;;5.63;5.33;;;;;;;27.72;51.08;101187.97;5032913;28;20424;-48
2022/06/25 10:01:02;;;;;;;6.33;5.83;;;;;;;27.57;51.61;101190.16;5031939;28;20432;-45
2022/06/25 10:03:34;;;;;;;4.93;4.73;;;;;;;28.13;50.26;101193.59;5032391;28;20436;-47
2022/06/25 10:06:03;;;;;;;5.53;5.13;;;;;;;28.56;49.00;101191.38;5032102;28;20961;-46
2022/06/25 10:08:31;;;;;;;6.40;6.10;;;;;;;28.37;50.28;101186.00;5032546;28;20455;-47
2022/06/25 10:11:00;;;;;;;6.43;6.13;;;;;;;27.55;50.61;101190.47;5032527;28;20471;-46
2022/06/25 10:13:27;;;;;;;6.13;5.73;;;;;;;27.21;53.91;101198.09;5032602;28;20446;-50
2022/06/25 10:15:55;;;;;;;6.53;5.97;;;;;;;27.34;52.98;101197.34;5032380;28;20452;-47
2022/06/25 10:18:24;;;;;;;6.53;6.10;;;;;;;26.82;53.65;101196.41;5032180;28;20547;-50
2022/06/25 10:20:52;;;;;;;6.30;6.00;;;;;;;26.96;53.85;101196.53;5031531;28;20472;-47
2022/06/25 10:23:22;;;;;;;6.53;6.13;;;;;;;26.65;55.00;101197.97;5032177;28;20432;-46
2022/06/25 10:25:50;;;;;;;5.37;5.17;;;;;;;26.47;54.56;101202.28;5032324;28;20458;-48
2022/06/25 10:28:28;;;;;;;5.90;5.40;;;;;;;26.54;54.16;101191.81;5031431;28;20464;-50
2022/06/25 10:30:57;;;;;;;6.07;5.40;;;;;;;26.53;55.47;101194.84;5031519;28;20920;-49
2022/06/25 10:33:27;;;;;;;5.50;5.17;;;;;;;27.15;53.45;101191.84;5020791;28;20504;-46
2022/06/25 10:36:01;;;;;;;5.70;5.40;;;;;;;27.14;52.77;101192.97;5029067;28;20450;-47
2022/06/25 10:38:28;;;;;;;5.57;5.27;;;;;;;27.52;52.49;101193.78;5032218;28;20435;-50
2022/06/25 10:40:57;;;;;;;5.97;5.67;;;;;;;27.99;51.11;101193.53;5031755;28;20480;-53
2022/06/25 10:43:36;;;;;;;5.73;5.00;;;;;;;27.76;51.06;101189.00;5031957;28;20523;-51
2022/06/25 10:46:21;;;;;;;5.30;4.93;;;;;;;27.92;52.27;101182.16;5031284;28;20463;-51
2022/06/25 10:48:56;;;;;;;5.97;5.40;;;;;;;27.77;51.71;101185.16;5032224;28;20763;-53
2022/06/25 10:51:34;;;;;;;5.47;5.27;;;;;;;28.12;49.38;101177.44;5031885;28;21111;-50
2022/06/25 10:54:03;;;;;;;5.13;4.77;;;;;;;28.55;49.10;101184.28;5031905;28;20428;-50
2022/06/25 10:56:44;;;;;;;5.07;4.77;;;;;;;28.53;49.50;101184.56;5031265;28;20456;-53
2022/06/25 10:59:30;;;;;;;5.87;5.47;;;;;;;28.56;48.34;101183.13;5030477;28;20428;-53
2022/06/25 11:01:59;;;;;;;6.60;6.13;;;;;;;28.36;49.99;101181.63;5030773;28;20442;-46
2022/06/25 11:04:28;;;;;;;5.63;5.33;;;;;;;27.84;50.30;101180.09;5031645;28;20501;-53
2022/06/25 11:07:10;;;;;;;6.20;5.80;;;;;;;27.90;50.44;101183.56;5030796;28;20545;-49
2022/06/25 11:09:38;;;;;;;5.40;5.10;;;;;;;28.22;50.33;101180.81;5031926;28;20789;-49
2022/06/25 11:12:08;;;;;;;7.03;6.53;;;;;;;28.32;49.59;101180.59;5030016;28;20569;-50
2022/06/25 11:14:36;;;;;;;5.53;5.23;;;;;;;28.37;49.42;101182.44;5031138;28;20809;-49
2022/06/25 11:17:08;;;;;;;5.40;4.90;;;;;;;28.49;50.35;101186.28;5030693;28;20984;-48
2022/06/25 11:19:42;;;;;;;5.53;5.33;;;;;;;28.35;49.50;101185.47;5031284;28;20482;-50
2022/06/25 11:22:11;;;;;;;5.30;5.10;;;;;;;28.03;50.53;101188.25;5030937;28;20424;-47
2022/06/25 11:28:47;;;;;;;5.57;5.17;;;;;;;28.28;49.53;101178.78;5031481;28;20432;-52
2022/06/25 11:30:14;;;;;;;5.80;5.43;;;;;;;27.42;51.34;101189.28;5030888;28;20431;-49
2022/06/25 11:32:46;;;;;;;4.70;4.50;;;;;;;27.91;51.03;101191.50;5029053;28;20447;-49
2022/06/25 11:35:14;;;;;;;5.47;5.17;;;;;;;28.27;50.61;101188.13;5027252;28;20423;-50
2022/06/25 11:37:43;;;;;;;5.70;5.30;;;;;;;28.25;50.46;101190.34;5034939;28;20474;-47
2022/06/25 11:40:15;;;;;;;6.00;5.63;;;;;;;28.49;50.16;101182.75;5034749;28;20482;-49
2022/06/25 11:42:43;;;;;;;5.80;5.40;;;;;;;28.17;49.84;101196.53;5034577;28;20439;-49
2022/06/25 11:45:11;;;;;;;5.70;5.37;;;;;;;27.75;50.83;101197.50;5035114;28;20431;-48